Alba, Michigan
Current Conditions -  °F | °C
As of 8:58 AM on Saturday 25 Oct 2014 (Local Time) from KACB Reporting Station
Clear Clear  
Wind Chill: 54°   Ceiling: Unl
Heat Index: 54°   Visibility: 7mi
Dew Point: 51°   Wind: 7mph
Humidity: 89%   Direction: 240°WSW
Pressure: 29.74"   Gusts: NA
Location:  44.97°N, 84.97°W
Report Text: KACB 251258Z AUTO 24006KT 7SM CLR 12/11 A2974 RMK AO2 T01220105
Loading
Personal Weather Stations






























Interactive Weather Map
Tropical Storm Tracking
New forecast layout! Learn more

10-Day Weather Forecast

Advertisements
Track Severe Weather on mobile